sensor_id;sensor_type;location;lat;lon;timestamp;P1;durP1;ratioP1;P2;durP2;ratioP2
3379;SDS011;1703;51.964;7.642;2022-09-28T00:00:58;16.73;;;9.97;;
3379;SDS011;1703;51.964;7.642;2022-09-28T00:03:30;15.93;;;11.23;;
3379;SDS011;1703;51.964;7.642;2022-09-28T00:05:59;13.83;;;10.20;;
3379;SDS011;1703;51.964;7.642;2022-09-28T00:08:28;13.17;;;10.43;;
3379;SDS011;1703;51.964;7.642;2022-09-28T00:10:55;15.50;;;9.77;;
3379;SDS011;1703;51.964;7.642;2022-09-28T00:13:22;15.70;;;9.77;;
3379;SDS011;1703;51.964;7.642;2022-09-28T00:15:57;18.00;;;10.33;;
3379;SDS011;1703;51.964;7.642;2022-09-28T00:18:25;16.10;;;10.17;;
3379;SDS011;1703;51.964;7.642;2022-09-28T00:20:58;12.40;;;8.37;;
3379;SDS011;1703;51.964;7.642;2022-09-28T00:23:26;13.87;;;9.70;;
3379;SDS011;1703;51.964;7.642;2022-09-28T00:25:54;12.00;;;10.23;;
3379;SDS011;1703;51.964;7.642;2022-09-28T00:28:21;11.97;;;9.80;;
3379;SDS011;1703;51.964;7.642;2022-09-28T00:30:53;12.87;;;9.03;;
3379;SDS011;1703;51.964;7.642;2022-09-28T00:33:20;16.20;;;9.13;;
3379;SDS011;1703;51.964;7.642;2022-09-28T00:35:53;14.27;;;10.10;;
3379;SDS011;1703;51.964;7.642;2022-09-28T00:38:20;14.50;;;9.83;;
3379;SDS011;1703;51.964;7.642;2022-09-28T00:40:47;12.00;;;9.80;;
3379;SDS011;1703;51.964;7.642;2022-09-28T00:43:18;13.93;;;10.37;;
3379;SDS011;1703;51.964;7.642;2022-09-28T00:45:46;13.73;;;10.87;;
3379;SDS011;1703;51.964;7.642;2022-09-28T00:48:19;20.27;;;11.47;;
3379;SDS011;1703;51.964;7.642;2022-09-28T00:50:46;14.87;;;12.00;;
3379;SDS011;1703;51.964;7.642;2022-09-28T00:53:13;19.97;;;12.57;;
3379;SDS011;1703;51.964;7.642;2022-09-28T00:55:45;18.70;;;11.10;;
3379;SDS011;1703;51.964;7.642;2022-09-28T00:58:16;16.80;;;12.03;;
3379;SDS011;1703;51.964;7.642;2022-09-28T01:00:48;16.57;;;12.87;;
3379;SDS011;1703;51.964;7.642;2022-09-28T01:03:15;21.83;;;13.57;;
3379;SDS011;1703;51.964;7.642;2022-09-28T01:05:42;26.17;;;13.20;;
3379;SDS011;1703;51.964;7.642;2022-09-28T01:08:10;14.97;;;11.90;;
3379;SDS011;1703;51.964;7.642;2022-09-28T01:10:38;18.00;;;12.27;;
3379;SDS011;1703;51.964;7.642;2022-09-28T01:13:08;19.80;;;12.53;;
3379;SDS011;1703;51.964;7.642;2022-09-28T01:15:39;22.03;;;12.73;;
3379;SDS011;1703;51.964;7.642;2022-09-28T01:18:15;19.67;;;12.90;;
3379;SDS011;1703;51.964;7.642;2022-09-28T01:20:49;21.37;;;14.30;;
3379;SDS011;1703;51.964;7.642;2022-09-28T01:26:22;15.60;;;11.30;;
3379;SDS011;1703;51.964;7.642;2022-09-28T01:29:27;18.30;;;14.30;;
3379;SDS011;1703;51.964;7.642;2022-09-28T01:32:04;16.17;;;13.87;;
3379;SDS011;1703;51.964;7.642;2022-09-28T01:34:38;17.10;;;13.13;;
3379;SDS011;1703;51.964;7.642;2022-09-28T01:37:10;18.67;;;12.70;;
3379;SDS011;1703;51.964;7.642;2022-09-28T01:39:40;16.97;;;13.20;;
3379;SDS011;1703;51.964;7.642;2022-09-28T01:42:13;21.53;;;12.80;;
3379;SDS011;1703;51.964;7.642;2022-09-28T01:44:44;18.20;;;13.80;;
3379;SDS011;1703;51.964;7.642;2022-09-28T01:47:14;21.87;;;13.40;;
3379;SDS011;1703;51.964;7.642;2022-09-28T01:49:45;20.47;;;11.43;;
3379;SDS011;1703;51.964;7.642;2022-09-28T01:52:16;16.47;;;11.97;;
3379;SDS011;1703;51.964;7.642;2022-09-28T01:54:50;16.03;;;12.07;;
3379;SDS011;1703;51.964;7.642;2022-09-28T02:01:11;17.47;;;13.07;;
3379;SDS011;1703;51.964;7.642;2022-09-28T02:03:43;19.63;;;12.60;;
3379;SDS011;1703;51.964;7.642;2022-09-28T02:06:14;17.47;;;11.47;;
3379;SDS011;1703;51.964;7.642;2022-09-28T02:08:45;18.40;;;11.90;;
3379;SDS011;1703;51.964;7.642;2022-09-28T02:11:16;24.23;;;13.10;;
3379;SDS011;1703;51.964;7.642;2022-09-28T02:13:45;18.43;;;13.23;;
3379;SDS011;1703;51.964;7.642;2022-09-28T02:16:17;19.00;;;12.93;;
3379;SDS011;1703;51.964;7.642;2022-09-28T02:18:48;15.70;;;12.50;;
3379;SDS011;1703;51.964;7.642;2022-09-28T02:21:16;17.20;;;11.83;;
3379;SDS011;1703;51.964;7.642;2022-09-28T02:23:50;17.87;;;11.07;;
3379;SDS011;1703;51.964;7.642;2022-09-28T02:26:21;16.57;;;12.10;;
3379;SDS011;1703;51.964;7.642;2022-09-28T02:28:52;23.63;;;12.30;;
3379;SDS011;1703;51.964;7.642;2022-09-28T02:31:20;16.87;;;12.37;;
3379;SDS011;1703;51.964;7.642;2022-09-28T02:33:47;17.63;;;13.20;;
3379;SDS011;1703;51.964;7.642;2022-09-28T02:36:16;15.53;;;11.60;;
3379;SDS011;1703;51.964;7.642;2022-09-28T02:38:43;21.70;;;12.57;;
3379;SDS011;1703;51.964;7.642;2022-09-28T02:41:13;12.90;;;11.33;;
3379;SDS011;1703;51.964;7.642;2022-09-28T02:43:49;17.40;;;12.00;;
3379;SDS011;1703;51.964;7.642;2022-09-28T02:46:28;14.30;;;12.27;;
3379;SDS011;1703;51.964;7.642;2022-09-28T02:49:12;16.70;;;12.17;;
3379;SDS011;1703;51.964;7.642;2022-09-28T02:51:48;17.80;;;12.40;;
3379;SDS011;1703;51.964;7.642;2022-09-28T02:57:28;14.50;;;11.30;;
3379;SDS011;1703;51.964;7.642;2022-09-28T03:00:05;14.53;;;11.33;;
3379;SDS011;1703;51.964;7.642;2022-09-28T03:02:38;15.70;;;11.47;;
3379;SDS011;1703;51.964;7.642;2022-09-28T03:05:13;18.23;;;12.77;;
3379;SDS011;1703;51.964;7.642;2022-09-28T03:07:45;15.80;;;11.50;;
3379;SDS011;1703;51.964;7.642;2022-09-28T03:10:20;17.67;;;12.00;;
3379;SDS011;1703;51.964;7.642;2022-09-28T03:12:55;19.77;;;12.60;;
3379;SDS011;1703;51.964;7.642;2022-09-28T03:15:22;14.97;;;11.47;;
3379;SDS011;1703;51.964;7.642;2022-09-28T03:17:53;17.40;;;11.90;;
3379;SDS011;1703;51.964;7.642;2022-09-28T03:20:20;17.20;;;12.27;;
3379;SDS011;1703;51.964;7.642;2022-09-28T03:22:48;15.97;;;12.13;;
3379;SDS011;1703;51.964;7.642;2022-09-28T03:25:15;15.63;;;12.00;;
3379;SDS011;1703;51.964;7.642;2022-09-28T03:27:44;14.60;;;10.33;;
3379;SDS011;1703;51.964;7.642;2022-09-28T03:30:13;17.27;;;11.57;;
3379;SDS011;1703;51.964;7.642;2022-09-28T03:32:44;15.90;;;11.60;;
3379;SDS011;1703;51.964;7.642;2022-09-28T03:35:13;14.27;;;11.20;;
3379;SDS011;1703;51.964;7.642;2022-09-28T03:37:39;15.03;;;11.20;;
3379;SDS011;1703;51.964;7.642;2022-09-28T03:40:07;14.70;;;11.67;;
3379;SDS011;1703;51.964;7.642;2022-09-28T03:42:34;15.73;;;12.67;;
3379;SDS011;1703;51.964;7.642;2022-09-28T03:45:02;18.83;;;12.80;;
3379;SDS011;1703;51.964;7.642;2022-09-28T03:47:30;15.90;;;11.07;;
3379;SDS011;1703;51.964;7.642;2022-09-28T03:49:57;13.97;;;10.83;;
3379;SDS011;1703;51.964;7.642;2022-09-28T03:52:25;17.30;;;12.47;;
3379;SDS011;1703;51.964;7.642;2022-09-28T03:54:52;15.53;;;11.47;;
3379;SDS011;1703;51.964;7.642;2022-09-28T03:57:18;16.90;;;11.33;;
3379;SDS011;1703;51.964;7.642;2022-09-28T03:59:45;11.77;;;10.47;;
3379;SDS011;1703;51.964;7.642;2022-09-28T04:02:12;19.67;;;13.00;;
3379;SDS011;1703;51.964;7.642;2022-09-28T04:04:40;15.57;;;11.57;;
3379;SDS011;1703;51.964;7.642;2022-09-28T04:07:07;16.33;;;11.87;;
3379;SDS011;1703;51.964;7.642;2022-09-28T04:09:35;16.17;;;11.87;;
3379;SDS011;1703;51.964;7.642;2022-09-28T04:12:02;13.57;;;11.40;;
3379;SDS011;1703;51.964;7.642;2022-09-28T04:14:29;16.23;;;11.60;;
3379;SDS011;1703;51.964;7.642;2022-09-28T04:16:56;19.50;;;13.40;;
3379;SDS011;1703;51.964;7.642;2022-09-28T04:19:25;17.10;;;12.27;;
3379;SDS011;1703;51.964;7.642;2022-09-28T04:22:12;18.47;;;13.77;;
3379;SDS011;1703;51.964;7.642;2022-09-28T04:24:40;16.00;;;11.97;;
3379;SDS011;1703;51.964;7.642;2022-09-28T04:27:07;22.83;;;13.10;;
3379;SDS011;1703;51.964;7.642;2022-09-28T04:29:52;21.07;;;13.60;;
3379;SDS011;1703;51.964;7.642;2022-09-28T04:32:18;19.60;;;13.87;;
3379;SDS011;1703;51.964;7.642;2022-09-28T04:34:45;19.70;;;14.30;;
3379;SDS011;1703;51.964;7.642;2022-09-28T04:37:12;18.63;;;12.40;;
3379;SDS011;1703;51.964;7.642;2022-09-28T04:39:40;22.43;;;13.97;;
3379;SDS011;1703;51.964;7.642;2022-09-28T04:42:08;19.17;;;12.33;;
3379;SDS011;1703;51.964;7.642;2022-09-28T04:44:37;22.63;;;14.03;;
3379;SDS011;1703;51.964;7.642;2022-09-28T04:47:07;16.87;;;13.43;;
3379;SDS011;1703;51.964;7.642;2022-09-28T04:49:52;20.53;;;12.87;;
3379;SDS011;1703;51.964;7.642;2022-09-28T04:52:25;17.53;;;13.40;;
3379;SDS011;1703;51.964;7.642;2022-09-28T04:54:53;19.60;;;13.03;;
3379;SDS011;1703;51.964;7.642;2022-09-28T04:57:20;16.87;;;12.80;;
3379;SDS011;1703;51.964;7.642;2022-09-28T04:59:46;17.37;;;12.53;;
3379;SDS011;1703;51.964;7.642;2022-09-28T05:02:13;20.47;;;12.63;;
3379;SDS011;1703;51.964;7.642;2022-09-28T05:04:49;22.20;;;14.60;;
3379;SDS011;1703;51.964;7.642;2022-09-28T05:07:43;22.07;;;14.07;;
3379;SDS011;1703;51.964;7.642;2022-09-28T05:10:12;19.30;;;12.73;;
3379;SDS011;1703;51.964;7.642;2022-09-28T05:12:39;15.70;;;11.63;;
3379;SDS011;1703;51.964;7.642;2022-09-28T05:15:07;17.33;;;11.30;;
3379;SDS011;1703;51.964;7.642;2022-09-28T05:17:34;20.80;;;13.03;;
3379;SDS011;1703;51.964;7.642;2022-09-28T05:20:27;19.07;;;13.30;;
3379;SDS011;1703;51.964;7.642;2022-09-28T05:22:54;17.70;;;12.23;;
3379;SDS011;1703;51.964;7.642;2022-09-28T05:25:23;21.40;;;12.23;;
3379;SDS011;1703;51.964;7.642;2022-09-28T05:28:12;20.73;;;12.17;;
3379;SDS011;1703;51.964;7.642;2022-09-28T05:30:59;17.43;;;13.90;;
3379;SDS011;1703;51.964;7.642;2022-09-28T05:33:45;20.03;;;12.90;;
3379;SDS011;1703;51.964;7.642;2022-09-28T05:36:12;18.47;;;12.13;;
3379;SDS011;1703;51.964;7.642;2022-09-28T05:38:40;18.70;;;11.70;;
3379;SDS011;1703;51.964;7.642;2022-09-28T05:41:09;21.27;;;13.40;;
3379;SDS011;1703;51.964;7.642;2022-09-28T05:43:37;19.00;;;13.60;;
3379;SDS011;1703;51.964;7.642;2022-09-28T05:46:04;20.70;;;13.53;;
3379;SDS011;1703;51.964;7.642;2022-09-28T05:48:35;16.00;;;11.33;;
3379;SDS011;1703;51.964;7.642;2022-09-28T05:51:01;22.50;;;14.43;;
3379;SDS011;1703;51.964;7.642;2022-09-28T05:53:28;16.47;;;12.77;;
3379;SDS011;1703;51.964;7.642;2022-09-28T05:55:57;22.40;;;13.20;;
3379;SDS011;1703;51.964;7.642;2022-09-28T05:58:26;21.10;;;15.50;;
3379;SDS011;1703;51.964;7.642;2022-09-28T06:00:53;23.97;;;15.40;;
3379;SDS011;1703;51.964;7.642;2022-09-28T06:03:20;15.97;;;13.27;;
3379;SDS011;1703;51.964;7.642;2022-09-28T06:05:48;22.87;;;14.93;;
3379;SDS011;1703;51.964;7.642;2022-09-28T06:08:14;22.90;;;14.20;;
3379;SDS011;1703;51.964;7.642;2022-09-28T06:10:45;16.70;;;13.03;;
3379;SDS011;1703;51.964;7.642;2022-09-28T06:13:13;20.67;;;14.40;;
3379;SDS011;1703;51.964;7.642;2022-09-28T06:15:41;18.43;;;12.53;;
3379;SDS011;1703;51.964;7.642;2022-09-28T06:18:11;21.83;;;15.50;;
3379;SDS011;1703;51.964;7.642;2022-09-28T06:20:57;25.30;;;13.70;;
3379;SDS011;1703;51.964;7.642;2022-09-28T06:23:30;21.73;;;13.47;;
3379;SDS011;1703;51.964;7.642;2022-09-28T06:25:57;18.90;;;13.90;;
3379;SDS011;1703;51.964;7.642;2022-09-28T06:28:24;21.07;;;13.70;;
3379;SDS011;1703;51.964;7.642;2022-09-28T06:30:53;17.67;;;13.67;;
3379;SDS011;1703;51.964;7.642;2022-09-28T06:33:20;22.33;;;13.47;;
3379;SDS011;1703;51.964;7.642;2022-09-28T06:35:50;19.30;;;13.70;;
3379;SDS011;1703;51.964;7.642;2022-09-28T06:38:18;20.70;;;14.30;;
3379;SDS011;1703;51.964;7.642;2022-09-28T06:40:46;16.20;;;12.67;;
3379;SDS011;1703;51.964;7.642;2022-09-28T06:43:13;22.57;;;14.17;;
3379;SDS011;1703;51.964;7.642;2022-09-28T06:53:34;23.10;;;14.30;;
3379;SDS011;1703;51.964;7.642;2022-09-28T06:56:23;22.03;;;13.77;;
3379;SDS011;1703;51.964;7.642;2022-09-28T06:58:50;20.40;;;13.47;;
3379;SDS011;1703;51.964;7.642;2022-09-28T07:01:17;16.00;;;12.50;;
3379;SDS011;1703;51.964;7.642;2022-09-28T07:03:54;19.70;;;14.13;;
3379;SDS011;1703;51.964;7.642;2022-09-28T07:06:44;24.73;;;14.97;;
3379;SDS011;1703;51.964;7.642;2022-09-28T07:09:32;17.30;;;12.70;;
3379;SDS011;1703;51.964;7.642;2022-09-28T07:12:19;22.90;;;14.23;;
3379;SDS011;1703;51.964;7.642;2022-09-28T07:14:52;21.70;;;13.37;;
3379;SDS011;1703;51.964;7.642;2022-09-28T07:17:21;25.70;;;13.30;;
3379;SDS011;1703;51.964;7.642;2022-09-28T07:19:49;19.40;;;14.07;;
3379;SDS011;1703;51.964;7.642;2022-09-28T07:22:17;23.50;;;15.50;;
3379;SDS011;1703;51.964;7.642;2022-09-28T07:24:46;21.63;;;13.87;;
3379;SDS011;1703;51.964;7.642;2022-09-28T07:27:39;23.70;;;14.60;;
3379;SDS011;1703;51.964;7.642;2022-09-28T07:30:33;19.10;;;14.20;;
3379;SDS011;1703;51.964;7.642;2022-09-28T07:33:26;22.10;;;15.17;;
3379;SDS011;1703;51.964;7.642;2022-09-28T07:36:15;20.30;;;12.80;;
3379;SDS011;1703;51.964;7.642;2022-09-28T07:38:45;27.80;;;14.13;;
3379;SDS011;1703;51.964;7.642;2022-09-28T07:41:14;16.50;;;11.40;;
3379;SDS011;1703;51.964;7.642;2022-09-28T07:43:47;17.63;;;12.73;;
3379;SDS011;1703;51.964;7.642;2022-09-28T07:46:14;17.53;;;11.70;;
3379;SDS011;1703;51.964;7.642;2022-09-28T07:48:57;16.00;;;11.50;;
3379;SDS011;1703;51.964;7.642;2022-09-28T07:51:33;19.87;;;13.27;;
3379;SDS011;1703;51.964;7.642;2022-09-28T07:54:15;18.23;;;12.67;;
3379;SDS011;1703;51.964;7.642;2022-09-28T07:56:56;17.40;;;11.30;;
3379;SDS011;1703;51.964;7.642;2022-09-28T07:59:34;17.13;;;10.10;;
3379;SDS011;1703;51.964;7.642;2022-09-28T08:02:19;16.40;;;10.87;;
3379;SDS011;1703;51.964;7.642;2022-09-28T08:08:35;12.57;;;9.83;;
3379;SDS011;1703;51.964;7.642;2022-09-28T08:11:04;16.73;;;9.30;;
3379;SDS011;1703;51.964;7.642;2022-09-28T08:14:04;18.80;;;10.90;;
3379;SDS011;1703;51.964;7.642;2022-09-28T08:16:46;11.70;;;9.57;;
3379;SDS011;1703;51.964;7.642;2022-09-28T08:19:21;17.00;;;9.60;;
3379;SDS011;1703;51.964;7.642;2022-09-28T08:21:49;14.43;;;9.37;;
3379;SDS011;1703;51.964;7.642;2022-09-28T08:24:16;14.57;;;9.67;;
3379;SDS011;1703;51.964;7.642;2022-09-28T08:26:44;12.97;;;8.03;;
3379;SDS011;1703;51.964;7.642;2022-09-28T08:33:03;12.77;;;8.70;;
3379;SDS011;1703;51.964;7.642;2022-09-28T08:35:40;13.70;;;9.13;;
3379;SDS011;1703;51.964;7.642;2022-09-28T08:45:55;10.43;;;7.23;;
3379;SDS011;1703;51.964;7.642;2022-09-28T08:48:38;16.00;;;8.80;;
3379;SDS011;1703;51.964;7.642;2022-09-28T08:51:44;12.93;;;9.40;;
3379;SDS011;1703;51.964;7.642;2022-09-28T08:54:29;15.90;;;9.80;;
3379;SDS011;1703;51.964;7.642;2022-09-28T08:57:06;13.03;;;8.33;;
3379;SDS011;1703;51.964;7.642;2022-09-28T08:59:45;14.10;;;9.40;;
3379;SDS011;1703;51.964;7.642;2022-09-28T09:02:20;13.20;;;7.70;;
3379;SDS011;1703;51.964;7.642;2022-09-28T09:04:55;12.40;;;7.93;;
3379;SDS011;1703;51.964;7.642;2022-09-28T09:10:45;11.40;;;7.60;;
3379;SDS011;1703;51.964;7.642;2022-09-28T09:13:32;9.97;;;8.40;;
3379;SDS011;1703;51.964;7.642;2022-09-28T09:16:23;13.30;;;7.60;;
3379;SDS011;1703;51.964;7.642;2022-09-28T09:19:27;10.40;;;6.90;;
3379;SDS011;1703;51.964;7.642;2022-09-28T09:22:15;9.87;;;6.87;;
3379;SDS011;1703;51.964;7.642;2022-09-28T09:24:47;13.40;;;7.90;;
3379;SDS011;1703;51.964;7.642;2022-09-28T09:27:39;12.47;;;6.90;;
3379;SDS011;1703;51.964;7.642;2022-09-28T09:30:17;13.80;;;7.33;;
3379;SDS011;1703;51.964;7.642;2022-09-28T09:32:53;13.10;;;8.23;;
3379;SDS011;1703;51.964;7.642;2022-09-28T09:35:45;9.73;;;7.47;;
3379;SDS011;1703;51.964;7.642;2022-09-28T09:38:50;8.30;;;6.53;;
3379;SDS011;1703;51.964;7.642;2022-09-28T09:41:47;15.97;;;8.07;;
3379;SDS011;1703;51.964;7.642;2022-09-28T09:45:00;11.20;;;8.43;;
3379;SDS011;1703;51.964;7.642;2022-09-28T09:48:05;9.20;;;6.47;;
3379;SDS011;1703;51.964;7.642;2022-09-28T09:50:39;7.50;;;5.90;;
3379;SDS011;1703;51.964;7.642;2022-09-28T09:56:11;8.93;;;5.87;;
3379;SDS011;1703;51.964;7.642;2022-09-28T09:59:04;9.80;;;6.70;;
3379;SDS011;1703;51.964;7.642;2022-09-28T10:01:39;10.50;;;6.40;;
3379;SDS011;1703;51.964;7.642;2022-09-28T10:04:18;5.90;;;5.40;;
3379;SDS011;1703;51.964;7.642;2022-09-28T10:06:50;10.43;;;6.27;;
3379;SDS011;1703;51.964;7.642;2022-09-28T10:09:23;8.70;;;7.37;;
3379;SDS011;1703;51.964;7.642;2022-09-28T10:12:09;5.93;;;5.33;;
3379;SDS011;1703;51.964;7.642;2022-09-28T10:14:39;6.60;;;5.57;;
3379;SDS011;1703;51.964;7.642;2022-09-28T10:17:08;6.27;;;5.00;;
3379;SDS011;1703;51.964;7.642;2022-09-28T10:19:55;6.53;;;5.20;;
3379;SDS011;1703;51.964;7.642;2022-09-28T10:22:29;5.93;;;5.13;;
3379;SDS011;1703;51.964;7.642;2022-09-28T10:25:02;8.17;;;5.63;;
3379;SDS011;1703;51.964;7.642;2022-09-28T10:27:37;8.40;;;5.73;;
3379;SDS011;1703;51.964;7.642;2022-09-28T10:30:13;7.77;;;5.67;;
3379;SDS011;1703;51.964;7.642;2022-09-28T10:32:44;12.33;;;6.83;;
3379;SDS011;1703;51.964;7.642;2022-09-28T10:35:18;9.93;;;5.47;;
3379;SDS011;1703;51.964;7.642;2022-09-28T10:38:02;9.80;;;5.90;;
3379;SDS011;1703;51.964;7.642;2022-09-28T10:40:46;8.57;;;5.70;;
3379;SDS011;1703;51.964;7.642;2022-09-28T10:43:23;9.93;;;4.60;;
3379;SDS011;1703;51.964;7.642;2022-09-28T10:45:59;6.10;;;3.53;;
3379;SDS011;1703;51.964;7.642;2022-09-28T10:48:28;4.40;;;4.00;;
3379;SDS011;1703;51.964;7.642;2022-09-28T10:51:02;6.13;;;3.73;;
3379;SDS011;1703;51.964;7.642;2022-09-28T10:53:32;11.03;;;4.77;;
3379;SDS011;1703;51.964;7.642;2022-09-28T10:56:01;8.57;;;4.40;;
3379;SDS011;1703;51.964;7.642;2022-09-28T10:58:34;6.07;;;3.90;;
3379;SDS011;1703;51.964;7.642;2022-09-28T11:01:05;4.93;;;3.50;;
3379;SDS011;1703;51.964;7.642;2022-09-28T11:03:40;5.13;;;3.80;;
3379;SDS011;1703;51.964;7.642;2022-09-28T11:06:21;5.40;;;4.03;;
3379;SDS011;1703;51.964;7.642;2022-09-28T11:08:50;6.70;;;2.90;;
3379;SDS011;1703;51.964;7.642;2022-09-28T11:11:20;3.83;;;2.80;;
3379;SDS011;1703;51.964;7.642;2022-09-28T11:14:00;2.73;;;2.47;;
3379;SDS011;1703;51.964;7.642;2022-09-28T11:16:34;3.43;;;3.20;;
3379;SDS011;1703;51.964;7.642;2022-09-28T11:19:03;6.93;;;3.63;;
3379;SDS011;1703;51.964;7.642;2022-09-28T11:21:39;4.90;;;3.33;;
3379;SDS011;1703;51.964;7.642;2022-09-28T11:24:17;4.87;;;3.00;;
3379;SDS011;1703;51.964;7.642;2022-09-28T11:26:46;4.30;;;3.90;;
3379;SDS011;1703;51.964;7.642;2022-09-28T11:29:29;8.03;;;4.30;;
3379;SDS011;1703;51.964;7.642;2022-09-28T11:32:27;4.43;;;3.13;;
3379;SDS011;1703;51.964;7.642;2022-09-28T11:35:16;8.43;;;3.47;;
3379;SDS011;1703;51.964;7.642;2022-09-28T11:37:52;4.40;;;3.70;;
3379;SDS011;1703;51.964;7.642;2022-09-28T11:40:58;5.40;;;2.50;;
3379;SDS011;1703;51.964;7.642;2022-09-28T11:43:44;7.53;;;3.13;;
3379;SDS011;1703;51.964;7.642;2022-09-28T11:46:43;5.30;;;4.50;;
3379;SDS011;1703;51.964;7.642;2022-09-28T11:49:23;4.17;;;3.53;;
3379;SDS011;1703;51.964;7.642;2022-09-28T11:51:55;4.10;;;3.30;;
3379;SDS011;1703;51.964;7.642;2022-09-28T11:54:28;6.13;;;5.40;;
3379;SDS011;1703;51.964;7.642;2022-09-28T11:57:02;9.10;;;6.93;;
3379;SDS011;1703;51.964;7.642;2022-09-28T11:59:32;10.60;;;7.23;;
3379;SDS011;1703;51.964;7.642;2022-09-28T12:02:09;9.40;;;6.90;;
3379;SDS011;1703;51.964;7.642;2022-09-28T12:04:45;7.10;;;6.10;;
3379;SDS011;1703;51.964;7.642;2022-09-28T12:07:23;7.10;;;6.50;;
3379;SDS011;1703;51.964;7.642;2022-09-28T12:09:53;8.47;;;7.57;;
3379;SDS011;1703;51.964;7.642;2022-09-28T12:12:27;7.23;;;6.40;;
3379;SDS011;1703;51.964;7.642;2022-09-28T12:15:00;9.57;;;7.20;;
3379;SDS011;1703;51.964;7.642;2022-09-28T12:17:35;6.57;;;5.97;;
3379;SDS011;1703;51.964;7.642;2022-09-28T12:20:09;7.70;;;6.00;;
3379;SDS011;1703;51.964;7.642;2022-09-28T12:22:44;6.10;;;5.50;;
3379;SDS011;1703;51.964;7.642;2022-09-28T12:25:18;6.87;;;5.80;;
3379;SDS011;1703;51.964;7.642;2022-09-28T12:27:48;6.43;;;5.57;;
3379;SDS011;1703;51.964;7.642;2022-09-28T12:30:19;6.63;;;5.27;;
3379;SDS011;1703;51.964;7.642;2022-09-28T12:32:51;8.27;;;5.93;;
3379;SDS011;1703;51.964;7.642;2022-09-28T12:35:24;7.27;;;5.20;;
3379;SDS011;1703;51.964;7.642;2022-09-28T12:38:07;8.80;;;5.10;;
3379;SDS011;1703;51.964;7.642;2022-09-28T12:40:51;4.10;;;3.80;;
3379;SDS011;1703;51.964;7.642;2022-09-28T12:43:27;5.30;;;4.43;;
3379;SDS011;1703;51.964;7.642;2022-09-28T12:46:13;4.80;;;4.30;;
3379;SDS011;1703;51.964;7.642;2022-09-28T12:51:44;4.63;;;4.23;;
3379;SDS011;1703;51.964;7.642;2022-09-28T12:54:18;4.03;;;3.73;;
3379;SDS011;1703;51.964;7.642;2022-09-28T12:57:06;4.53;;;3.93;;
3379;SDS011;1703;51.964;7.642;2022-09-28T12:59:48;4.40;;;3.57;;
3379;SDS011;1703;51.964;7.642;2022-09-28T13:02:33;3.67;;;3.37;;
3379;SDS011;1703;51.964;7.642;2022-09-28T13:05:28;4.70;;;2.87;;
3379;SDS011;1703;51.964;7.642;2022-09-28T13:08:15;4.40;;;2.73;;
3379;SDS011;1703;51.964;7.642;2022-09-28T13:10:49;5.37;;;2.63;;
3379;SDS011;1703;51.964;7.642;2022-09-28T13:13:25;5.00;;;2.77;;
3379;SDS011;1703;51.964;7.642;2022-09-28T13:16:02;4.30;;;2.97;;
3379;SDS011;1703;51.964;7.642;2022-09-28T13:18:37;2.97;;;2.60;;
3379;SDS011;1703;51.964;7.642;2022-09-28T13:21:11;3.60;;;2.77;;
3379;SDS011;1703;51.964;7.642;2022-09-28T13:23:48;7.03;;;3.40;;
3379;SDS011;1703;51.964;7.642;2022-09-28T13:26:18;2.20;;;2.00;;
3379;SDS011;1703;51.964;7.642;2022-09-28T13:28:51;2.33;;;1.90;;
3379;SDS011;1703;51.964;7.642;2022-09-28T13:31:22;2.13;;;2.03;;
3379;SDS011;1703;51.964;7.642;2022-09-28T13:33:55;2.17;;;1.97;;
3379;SDS011;1703;51.964;7.642;2022-09-28T13:36:34;6.80;;;2.77;;
3379;SDS011;1703;51.964;7.642;2022-09-28T13:39:02;2.83;;;2.63;;
3379;SDS011;1703;51.964;7.642;2022-09-28T13:41:54;2.63;;;2.43;;
3379;SDS011;1703;51.964;7.642;2022-09-28T13:44:36;2.67;;;2.47;;
3379;SDS011;1703;51.964;7.642;2022-09-28T13:47:15;6.40;;;2.53;;
3379;SDS011;1703;51.964;7.642;2022-09-28T13:49:55;3.83;;;2.30;;
3379;SDS011;1703;51.964;7.642;2022-09-28T13:52:34;2.10;;;1.87;;
3379;SDS011;1703;51.964;7.642;2022-09-28T13:57:59;2.60;;;2.40;;
3379;SDS011;1703;51.964;7.642;2022-09-28T14:00:29;2.73;;;1.80;;
3379;SDS011;1703;51.964;7.642;2022-09-28T14:03:03;1.80;;;1.33;;
3379;SDS011;1703;51.964;7.642;2022-09-28T14:06:03;1.47;;;1.37;;
3379;SDS011;1703;51.964;7.642;2022-09-28T14:08:41;2.07;;;1.87;;
3379;SDS011;1703;51.964;7.642;2022-09-28T14:11:23;2.00;;;1.70;;
3379;SDS011;1703;51.964;7.642;2022-09-28T14:14:28;1.70;;;1.53;;
3379;SDS011;1703;51.964;7.642;2022-09-28T14:20:21;2.10;;;1.63;;
3379;SDS011;1703;51.964;7.642;2022-09-28T14:22:56;1.97;;;1.67;;
3379;SDS011;1703;51.964;7.642;2022-09-28T14:25:57;2.03;;;1.67;;
3379;SDS011;1703;51.964;7.642;2022-09-28T14:28:34;2.63;;;1.53;;
3379;SDS011;1703;51.964;7.642;2022-09-28T14:31:15;2.20;;;2.00;;
3379;SDS011;1703;51.964;7.642;2022-09-28T14:33:52;1.40;;;1.30;;
3379;SDS011;1703;51.964;7.642;2022-09-28T14:36:22;8.10;;;1.40;;
3379;SDS011;1703;51.964;7.642;2022-09-28T14:39:15;2.67;;;1.80;;
3379;SDS011;1703;51.964;7.642;2022-09-28T14:42:07;2.90;;;1.80;;
3379;SDS011;1703;51.964;7.642;2022-09-28T14:47:43;3.53;;;2.03;;
3379;SDS011;1703;51.964;7.642;2022-09-28T14:50:38;2.30;;;1.27;;
3379;SDS011;1703;51.964;7.642;2022-09-28T14:53:05;2.63;;;1.50;;
3379;SDS011;1703;51.964;7.642;2022-09-28T14:55:39;1.60;;;1.50;;
3379;SDS011;1703;51.964;7.642;2022-09-28T14:58:16;1.60;;;1.50;;
3379;SDS011;1703;51.964;7.642;2022-09-28T15:00:47;1.50;;;1.40;;
3379;SDS011;1703;51.964;7.642;2022-09-28T15:03:18;1.63;;;1.17;;
3379;SDS011;1703;51.964;7.642;2022-09-28T15:05:47;2.70;;;1.83;;
3379;SDS011;1703;51.964;7.642;2022-09-28T15:08:14;1.23;;;1.13;;
3379;SDS011;1703;51.964;7.642;2022-09-28T15:10:45;1.37;;;1.20;;
3379;SDS011;1703;51.964;7.642;2022-09-28T15:13:17;1.87;;;1.30;;
3379;SDS011;1703;51.964;7.642;2022-09-28T15:15:50;2.13;;;1.50;;
3379;SDS011;1703;51.964;7.642;2022-09-28T15:18:27;4.33;;;1.70;;
3379;SDS011;1703;51.964;7.642;2022-09-28T15:21:08;2.93;;;1.70;;
3379;SDS011;1703;51.964;7.642;2022-09-28T15:23:36;1.60;;;1.50;;
3379;SDS011;1703;51.964;7.642;2022-09-28T15:26:05;2.70;;;1.37;;
3379;SDS011;1703;51.964;7.642;2022-09-28T15:28:35;1.07;;;1.00;;
3379;SDS011;1703;51.964;7.642;2022-09-28T15:31:03;3.27;;;1.30;;
3379;SDS011;1703;51.964;7.642;2022-09-28T15:33:31;1.30;;;1.20;;
3379;SDS011;1703;51.964;7.642;2022-09-28T15:36:17;1.50;;;1.40;;
3379;SDS011;1703;51.964;7.642;2022-09-28T15:38:50;1.47;;;1.37;;
3379;SDS011;1703;51.964;7.642;2022-09-28T15:41:21;2.20;;;0.90;;
3379;SDS011;1703;51.964;7.642;2022-09-28T15:47:02;2.83;;;1.10;;
3379;SDS011;1703;51.964;7.642;2022-09-28T15:49:34;2.60;;;1.40;;
3379;SDS011;1703;51.964;7.642;2022-09-28T15:52:05;2.93;;;1.10;;
3379;SDS011;1703;51.964;7.642;2022-09-28T15:54:46;1.27;;;1.07;;
3379;SDS011;1703;51.964;7.642;2022-09-28T15:57:26;1.30;;;1.20;;
3379;SDS011;1703;51.964;7.642;2022-09-28T15:59:59;2.43;;;1.10;;
3379;SDS011;1703;51.964;7.642;2022-09-28T16:02:37;0.87;;;0.83;;
3379;SDS011;1703;51.964;7.642;2022-09-28T16:05:20;1.10;;;1.00;;
3379;SDS011;1703;51.964;7.642;2022-09-28T16:08:00;6.90;;;1.50;;
3379;SDS011;1703;51.964;7.642;2022-09-28T16:10:29;1.40;;;1.30;;
3379;SDS011;1703;51.964;7.642;2022-09-28T16:13:11;2.27;;;2.07;;
3379;SDS011;1703;51.964;7.642;2022-09-28T16:15:43;1.90;;;1.70;;
3379;SDS011;1703;51.964;7.642;2022-09-28T16:18:17;1.70;;;1.60;;
3379;SDS011;1703;51.964;7.642;2022-09-28T16:20:46;3.57;;;1.73;;
3379;SDS011;1703;51.964;7.642;2022-09-28T16:23:23;2.10;;;1.63;;
3379;SDS011;1703;51.964;7.642;2022-09-28T16:25:53;1.90;;;1.80;;
3379;SDS011;1703;51.964;7.642;2022-09-28T16:28:28;4.37;;;1.80;;
3379;SDS011;1703;51.964;7.642;2022-09-28T16:31:25;3.00;;;1.63;;
3379;SDS011;1703;51.964;7.642;2022-09-28T16:33:58;2.10;;;1.63;;
3379;SDS011;1703;51.964;7.642;2022-09-28T16:36:37;4.00;;;1.70;;
3379;SDS011;1703;51.964;7.642;2022-09-28T16:39:08;2.30;;;1.67;;
3379;SDS011;1703;51.964;7.642;2022-09-28T16:41:35;1.13;;;1.03;;